createdAt,value
2018-08-12T00:00:06.618Z,16.8888888889
2018-08-12T00:00:19.146Z,16.8888888889
2018-08-12T00:00:31.687Z,16.8888888889
2018-08-12T00:00:44.223Z,16.8888888889
2018-08-12T00:00:56.787Z,16.8888888889
2018-08-12T00:01:09.316Z,16.8888888889
2018-08-12T00:01:21.836Z,16.8888888889
2018-08-12T00:01:34.367Z,16.8888888889
2018-08-12T00:01:46.875Z,16.8888888889
2018-08-12T00:01:59.402Z,16.8888888889
2018-08-12T00:02:11.919Z,16.8888888889
2018-08-12T00:02:24.422Z,16.9444444444
2018-08-12T00:02:37.172Z,16.8888888889
2018-08-12T00:02:49.694Z,16.8888888889
2018-08-12T00:03:02.440Z,16.8888888889
2018-08-12T00:03:14.979Z,16.8888888889
2018-08-12T00:03:27.490Z,16.8888888889
2018-08-12T00:03:40.040Z,16.8888888889
2018-08-12T00:03:52.544Z,16.8888888889
2018-08-12T00:04:05.057Z,16.8888888889
2018-08-12T00:04:17.757Z,16.8333333333
2018-08-12T00:04:30.284Z,16.8333333333
2018-08-12T00:04:42.820Z,16.8888888889
2018-08-12T00:04:55.336Z,16.8333333333
2018-08-12T00:05:07.857Z,16.8333333333
2018-08-12T00:05:20.379Z,16.8333333333
2018-08-12T00:05:32.988Z,16.8333333333
2018-08-12T00:05:45.498Z,16.8333333333
2018-08-12T00:05:58.011Z,16.8333333333
2018-08-12T00:06:10.527Z,16.8333333333
2018-08-12T00:06:23.038Z,16.8333333333
2018-08-12T00:06:35.565Z,16.8333333333
2018-08-12T00:06:48.098Z,16.8333333333
2018-08-12T00:07:00.624Z,16.7777777778
2018-08-12T00:07:13.153Z,16.7777777778
2018-08-12T00:07:25.676Z,16.7777777778
2018-08-12T00:07:38.197Z,16.7777777778
2018-08-12T00:07:50.693Z,16.7777777778
2018-08-12T00:08:03.221Z,16.7777777778
2018-08-12T00:08:16.001Z,16.7777777778
2018-08-12T00:08:28.533Z,16.7777777778
2018-08-12T00:08:41.056Z,16.7777777778
2018-08-12T00:08:53.581Z,16.7777777778
2018-08-12T00:09:06.084Z,16.7777777778
2018-08-12T00:09:18.592Z,16.7777777778
2018-08-12T00:09:31.102Z,16.7777777778
2018-08-12T00:09:43.636Z,16.7777777778
2018-08-12T00:09:56.159Z,16.7777777778
2018-08-12T00:10:08.695Z,16.7777777778
2018-08-12T00:10:21.225Z,16.7777777778
2018-08-12T00:10:33.753Z,16.7777777778
2018-08-12T00:10:46.291Z,16.8333333333
2018-08-12T00:10:58.804Z,16.7777777778
2018-08-12T00:11:11.322Z,16.7777777778
2018-08-12T00:11:23.834Z,16.7777777778
2018-08-12T00:11:36.367Z,16.7777777778
2018-08-12T00:11:48.912Z,16.7777777778
2018-08-12T00:12:01.421Z,16.7777777778
2018-08-12T00:12:13.945Z,16.7777777778
2018-08-12T00:12:26.447Z,16.7777777778
2018-08-12T00:12:38.969Z,16.7777777778
2018-08-12T00:12:51.509Z,16.7777777778
2018-08-12T00:13:04.054Z,16.7777777778
2018-08-12T00:13:16.614Z,16.7777777778
2018-08-12T00:13:29.153Z,16.7777777778
2018-08-12T00:13:41.671Z,16.7777777778
2018-08-12T00:13:54.252Z,16.7777777778
2018-08-12T00:14:06.811Z,16.7777777778
2018-08-12T00:14:19.343Z,16.7777777778
2018-08-12T00:14:31.856Z,16.7777777778
2018-08-12T00:14:44.377Z,16.7777777778
2018-08-12T00:14:56.899Z,16.7777777778
2018-08-12T00:15:09.771Z,16.7777777778
2018-08-12T00:15:23.306Z,16.7777777778
2018-08-12T00:15:35.851Z,16.7777777778
2018-08-12T00:15:48.389Z,16.7777777778
2018-08-12T00:16:00.951Z,16.7777777778
2018-08-12T00:16:13.486Z,16.7777777778
2018-08-12T00:16:26.001Z,16.7777777778
2018-08-12T00:16:38.514Z,16.7777777778
2018-08-12T00:16:51.056Z,16.7777777778
2018-08-12T00:17:03.567Z,16.7777777778
2018-08-12T00:17:16.091Z,16.7777777778
2018-08-12T00:17:28.622Z,16.7777777778
2018-08-12T00:17:41.138Z,16.7777777778
2018-08-12T00:17:53.700Z,16.7222222222
2018-08-12T00:18:06.227Z,16.7777777778
2018-08-12T00:18:18.784Z,16.7222222222
2018-08-12T00:18:31.294Z,16.7222222222
2018-08-12T00:18:43.821Z,16.7222222222
2018-08-12T00:18:56.359Z,16.7222222222
2018-08-12T00:19:08.879Z,16.7222222222
2018-08-12T00:19:21.404Z,16.7222222222
2018-08-12T00:19:33.927Z,16.7222222222
2018-08-12T00:19:46.464Z,16.7222222222
2018-08-12T00:19:59.142Z,16.7222222222
2018-08-12T00:20:11.669Z,16.7222222222
2018-08-12T00:20:24.180Z,16.7222222222
2018-08-12T00:20:36.684Z,16.7222222222
2018-08-12T00:20:49.231Z,16.6666666667
2018-08-12T00:21:01.770Z,16.7222222222
2018-08-12T00:21:14.304Z,16.7222222222
2018-08-12T00:21:26.866Z,16.7222222222
2018-08-12T00:21:39.374Z,16.6666666667
2018-08-12T00:21:51.890Z,16.7222222222
2018-08-12T00:22:04.518Z,16.7222222222
2018-08-12T00:22:17.040Z,16.7222222222
2018-08-12T00:22:29.580Z,16.7222222222
2018-08-12T00:22:42.090Z,16.7222222222
2018-08-12T00:22:54.596Z,16.7222222222
2018-08-12T00:23:07.118Z,16.6666666667
2018-08-12T00:23:19.633Z,16.6666666667
2018-08-12T00:23:32.162Z,16.6666666667
2018-08-12T00:23:44.857Z,16.6666666667
2018-08-12T00:23:57.387Z,16.6666666667
2018-08-12T00:24:09.899Z,16.6666666667
2018-08-12T00:24:22.410Z,16.6666666667
2018-08-12T00:24:34.919Z,16.6666666667
2018-08-12T00:24:47.438Z,16.6666666667
2018-08-12T00:24:59.949Z,16.6666666667
2018-08-12T00:25:12.794Z,16.6666666667
2018-08-12T00:25:25.326Z,16.6666666667
2018-08-12T00:25:37.840Z,16.6666666667
2018-08-12T00:25:50.360Z,16.6666666667
2018-08-12T00:26:03.055Z,16.6666666667
2018-08-12T00:26:15.594Z,16.6666666667
2018-08-12T00:26:28.134Z,16.6666666667
2018-08-12T00:26:40.660Z,16.6666666667
2018-08-12T00:26:53.171Z,16.6111111111
2018-08-12T00:27:05.693Z,16.6111111111
2018-08-12T00:27:18.209Z,16.6111111111
2018-08-12T00:27:30.717Z,16.6111111111
2018-08-12T00:27:43.238Z,16.6111111111
2018-08-12T00:27:55.754Z,16.6111111111
2018-08-12T00:28:08.270Z,16.6111111111
2018-08-12T00:28:20.840Z,16.6111111111
2018-08-12T00:28:33.363Z,16.6111111111
2018-08-12T00:28:45.896Z,16.6111111111
2018-08-12T00:28:58.448Z,16.6111111111
2018-08-12T00:29:10.972Z,16.6111111111
2018-08-12T00:29:23.648Z,16.6111111111
2018-08-12T00:29:36.171Z,16.6111111111
2018-08-12T00:29:48.700Z,16.5555555556
2018-08-12T00:30:01.368Z,16.5555555556
2018-08-12T00:30:14.010Z,16.6111111111
2018-08-12T00:30:26.595Z,16.5555555556
2018-08-12T00:30:39.124Z,16.6111111111
2018-08-12T00:30:51.644Z,16.5555555556
2018-08-12T00:31:04.213Z,16.5555555556
2018-08-12T00:31:16.748Z,16.5555555556
2018-08-12T00:31:29.255Z,16.5555555556
2018-08-12T00:31:41.780Z,16.5555555556
2018-08-12T00:31:54.316Z,16.5555555556
2018-08-12T00:32:06.861Z,16.5555555556
2018-08-12T00:32:19.395Z,16.5
2018-08-12T00:32:32.002Z,16.5555555556
2018-08-12T00:32:44.550Z,16.5
2018-08-12T00:32:57.092Z,16.5
2018-08-12T00:33:09.620Z,16.5
2018-08-12T00:33:22.141Z,16.5
2018-08-12T00:33:34.666Z,16.5
2018-08-12T00:33:47.174Z,16.5
2018-08-12T00:33:59.706Z,16.5
2018-08-12T00:34:12.216Z,16.5
2018-08-12T00:34:24.762Z,16.5
2018-08-12T00:34:37.282Z,16.4444444444
2018-08-12T00:34:49.809Z,16.5
2018-08-12T00:35:02.338Z,16.4444444444
2018-08-12T00:35:14.878Z,16.4444444444
2018-08-12T00:35:27.406Z,16.4444444444
2018-08-12T00:35:39.913Z,16.4444444444
2018-08-12T00:35:52.431Z,16.4444444444
2018-08-12T00:36:04.973Z,16.4444444444
2018-08-12T00:36:17.490Z,16.4444444444
2018-08-12T00:36:30.059Z,16.4444444444
2018-08-12T00:36:42.604Z,16.4444444444
2018-08-12T00:36:55.133Z,16.3888888889
2018-08-12T00:37:07.654Z,16.3888888889
2018-08-12T00:37:20.299Z,16.4444444444
2018-08-12T00:37:32.850Z,16.3888888889
2018-08-12T00:37:45.383Z,16.3333333333
2018-08-12T00:37:57.930Z,16.3333333333
2018-08-12T00:38:10.450Z,16.3333333333
2018-08-12T00:38:22.981Z,16.3333333333
2018-08-12T00:38:35.492Z,16.3333333333
2018-08-12T00:38:48.074Z,16.3333333333
2018-08-12T00:39:00.642Z,16.3333333333
2018-08-12T00:39:13.180Z,16.3333333333
2018-08-12T00:39:26.033Z,16.3333333333
2018-08-12T00:39:38.574Z,16.3333333333
2018-08-12T00:39:51.079Z,16.2777777778
2018-08-12T00:40:03.607Z,16.3333333333
2018-08-12T00:40:16.128Z,16.2777777778
2018-08-12T00:40:28.669Z,16.2777777778
2018-08-12T00:40:41.203Z,16.3333333333
2018-08-12T00:40:53.728Z,16.2777777778
2018-08-12T00:41:06.238Z,16.2777777778
2018-08-12T00:41:18.773Z,16.2777777778
2018-08-12T00:41:31.296Z,16.2777777778
2018-08-12T00:41:43.806Z,16.2777777778
2018-08-12T00:41:56.326Z,16.2777777778
2018-08-12T00:42:08.854Z,16.2222222222
2018-08-12T00:42:21.389Z,16.2222222222
2018-08-12T00:42:33.919Z,16.2222222222
2018-08-12T00:42:46.443Z,16.2222222222
2018-08-12T00:42:59.007Z,16.2222222222
2018-08-12T00:43:11.572Z,16.1666666667
2018-08-12T00:43:24.098Z,16.2222222222
2018-08-12T00:43:36.600Z,16.1666666667
2018-08-12T00:43:49.116Z,16.1666666667
2018-08-12T00:44:01.631Z,16.1666666667
2018-08-12T00:44:14.162Z,16.1666666667
2018-08-12T00:44:26.704Z,16.1666666667
2018-08-12T00:44:39.234Z,16.1666666667
2018-08-12T00:44:51.749Z,16.1666666667
2018-08-12T00:45:04.272Z,16.1666666667
2018-08-12T00:45:16.796Z,16.1666666667
2018-08-12T00:45:29.378Z,16.1111111111
2018-08-12T00:45:41.945Z,16.1666666667
2018-08-12T00:45:54.461Z,16.1111111111
2018-08-12T00:46:06.964Z,16.1666666667
2018-08-12T00:46:19.484Z,16.1666666667
2018-08-12T00:46:32.001Z,16.1111111111
2018-08-12T00:46:44.512Z,16.1111111111
2018-08-12T00:46:57.024Z,16.1111111111
2018-08-12T00:47:09.559Z,16.1111111111
2018-08-12T00:47:22.078Z,16.1111111111
2018-08-12T00:47:34.587Z,16.0555555556
2018-08-12T00:47:47.107Z,16.1111111111
2018-08-12T00:47:59.624Z,16.0555555556
2018-08-12T00:48:12.146Z,16.0555555556
2018-08-12T00:48:24.660Z,16.0555555556
2018-08-12T00:48:37.168Z,16.0555555556
2018-08-12T00:48:49.693Z,16.0555555556
2018-08-12T00:49:02.340Z,16.0555555556
2018-08-12T00:49:14.845Z,16.0555555556
2018-08-12T00:49:27.371Z,16.0555555556
2018-08-12T00:49:39.896Z,16.0555555556
2018-08-12T00:49:52.406Z,16.0555555556
2018-08-12T00:50:04.934Z,16
2018-08-12T00:50:17.450Z,16
2018-08-12T00:50:29.962Z,16.0555555556
2018-08-12T00:50:42.489Z,16.0555555556
2018-08-12T00:50:55.054Z,16
2018-08-12T00:51:07.568Z,16
2018-08-12T00:51:20.097Z,16
2018-08-12T00:51:32.604Z,16
2018-08-12T00:51:45.243Z,16
2018-08-12T00:51:57.764Z,16
2018-08-12T00:52:10.293Z,16
2018-08-12T00:52:22.828Z,16
2018-08-12T00:52:35.460Z,16
2018-08-12T00:52:47.992Z,16
2018-08-12T00:53:00.506Z,15.9444444444
2018-08-12T00:53:13.020Z,16
2018-08-12T00:53:25.550Z,16
2018-08-12T00:53:38.066Z,16
2018-08-12T00:53:50.585Z,16
2018-08-12T00:54:03.146Z,16
2018-08-12T00:54:15.662Z,15.9444444444
2018-08-12T00:54:28.196Z,15.9444444444
2018-08-12T00:54:40.708Z,16
2018-08-12T00:54:53.222Z,15.9444444444
2018-08-12T00:55:05.752Z,15.9444444444
2018-08-12T00:55:18.258Z,15.9444444444
2018-08-12T00:55:30.777Z,15.9444444444
2018-08-12T00:55:43.273Z,15.9444444444
2018-08-12T00:55:55.789Z,15.9444444444
2018-08-12T00:56:08.336Z,15.9444444444
2018-08-12T00:56:20.855Z,15.9444444444
2018-08-12T00:56:33.382Z,16
2018-08-12T00:56:45.940Z,15.9444444444
2018-08-12T00:56:58.456Z,15.9444444444
2018-08-12T00:57:11.010Z,15.9444444444
2018-08-12T00:57:23.729Z,15.9444444444
2018-08-12T00:57:36.238Z,15.9444444444
2018-08-12T00:57:48.924Z,15.9444444444
2018-08-12T00:58:01.444Z,15.9444444444
2018-08-12T00:58:13.963Z,15.9444444444
2018-08-12T00:58:26.464Z,15.9444444444
2018-08-12T00:58:39.018Z,15.9444444444
2018-08-12T00:58:51.573Z,15.9444444444
2018-08-12T00:59:04.104Z,15.9444444444
2018-08-12T00:59:16.616Z,15.9444444444
2018-08-12T00:59:29.163Z,15.9444444444
2018-08-12T00:59:41.673Z,15.9444444444
2018-08-12T00:59:54.174Z,15.9444444444
2018-08-12T01:00:06.743Z,15.9444444444
2018-08-12T01:00:19.287Z,15.9444444444
2018-08-12T01:00:31.798Z,15.9444444444
2018-08-12T01:00:44.302Z,15.8888888889
2018-08-12T01:00:56.839Z,15.9444444444
2018-08-12T01:01:09.361Z,15.9444444444
2018-08-12T01:01:21.871Z,15.9444444444
2018-08-12T01:01:34.379Z,15.9444444444
2018-08-12T01:01:46.995Z,15.9444444444
2018-08-12T01:01:59.500Z,15.9444444444
2018-08-12T01:02:12.009Z,15.9444444444
2018-08-12T01:02:24.537Z,15.9444444444
2018-08-12T01:02:37.250Z,15.9444444444
2018-08-12T01:02:49.775Z,15.9444444444
2018-08-12T01:03:02.345Z,15.9444444444
2018-08-12T01:03:14.857Z,15.9444444444
2018-08-12T01:03:27.371Z,15.9444444444
2018-08-12T01:03:40.032Z,15.9444444444
2018-08-12T01:03:52.557Z,15.9444444444
2018-08-12T01:04:05.072Z,15.9444444444
2018-08-12T01:04:17.760Z,15.9444444444
2018-08-12T01:04:30.277Z,15.9444444444
2018-08-12T01:04:42.801Z,15.9444444444
2018-08-12T01:04:55.337Z,15.9444444444
2018-08-12T01:05:07.899Z,15.9444444444
2018-08-12T01:05:20.405Z,15.9444444444
2018-08-12T01:05:32.918Z,15.9444444444
2018-08-12T01:05:45.477Z,15.9444444444
2018-08-12T01:05:58.028Z,16
2018-08-12T01:06:10.685Z,15.9444444444
2018-08-12T01:06:23.215Z,15.9444444444
2018-08-12T01:06:35.784Z,15.9444444444
2018-08-12T01:06:48.303Z,15.9444444444
2018-08-12T01:07:00.833Z,15.9444444444
2018-08-12T01:07:13.353Z,15.9444444444
2018-08-12T01:07:25.868Z,15.9444444444
2018-08-12T01:07:38.408Z,15.9444444444
2018-08-12T01:07:50.985Z,15.9444444444
2018-08-12T01:08:03.500Z,15.9444444444
2018-08-12T01:08:16.025Z,15.9444444444
2018-08-12T01:08:28.553Z,15.9444444444
2018-08-12T01:08:41.065Z,15.9444444444
2018-08-12T01:08:53.578Z,15.9444444444
2018-08-12T01:09:06.105Z,15.9444444444
2018-08-12T01:09:18.639Z,15.9444444444
2018-08-12T01:09:31.186Z,15.9444444444
2018-08-12T01:09:43.720Z,15.9444444444
2018-08-12T01:09:56.223Z,15.9444444444
2018-08-12T01:10:08.741Z,15.9444444444
2018-08-12T01:10:21.285Z,15.9444444444
2018-08-12T01:10:33.798Z,15.9444444444
2018-08-12T01:10:46.328Z,15.9444444444
2018-08-12T01:10:58.841Z,15.9444444444
2018-08-12T01:11:11.379Z,15.9444444444
2018-08-12T01:11:23.904Z,15.9444444444
2018-08-12T01:11:36.425Z,15.9444444444
2018-08-12T01:11:48.964Z,15.9444444444
2018-08-12T01:12:01.469Z,15.9444444444
2018-08-12T01:12:14.044Z,15.9444444444
2018-08-12T01:12:26.569Z,15.9444444444
2018-08-12T01:12:39.208Z,15.8888888889
2018-08-12T01:12:51.791Z,15.9444444444
2018-08-12T01:13:04.277Z,15.9444444444
2018-08-12T01:13:16.788Z,15.9444444444
2018-08-12T01:13:29.354Z,15.9444444444
2018-08-12T01:13:41.873Z,15.9444444444
2018-08-12T01:13:54.420Z,15.9444444444
2018-08-12T01:14:06.975Z,15.8888888889
2018-08-12T01:14:19.492Z,15.8888888889
2018-08-12T01:14:32.008Z,15.8888888889
2018-08-12T01:14:44.532Z,15.8888888889
2018-08-12T01:14:57.058Z,15.8888888889
2018-08-12T01:15:09.650Z,15.8888888889
2018-08-12T01:15:22.174Z,15.8888888889
2018-08-12T01:15:34.703Z,15.8888888889
2018-08-12T01:15:47.239Z,15.9444444444
2018-08-12T01:15:59.776Z,15.8888888889
2018-08-12T01:16:12.300Z,15.8888888889
2018-08-12T01:16:24.835Z,15.8888888889
2018-08-12T01:16:37.356Z,15.8888888889
2018-08-12T01:16:49.871Z,15.8888888889
2018-08-12T01:17:02.433Z,15.8888888889
2018-08-12T01:17:14.947Z,15.8888888889
2018-08-12T01:17:27.482Z,15.8888888889
2018-08-12T01:17:39.990Z,15.8888888889
2018-08-12T01:17:52.501Z,15.8888888889
2018-08-12T01:18:05.030Z,15.8888888889
2018-08-12T01:18:17.552Z,15.8888888889
2018-08-12T01:18:30.064Z,15.8888888889
2018-08-12T01:18:42.607Z,15.8888888889
2018-08-12T01:18:55.137Z,15.8888888889
2018-08-12T01:19:07.702Z,15.8333333333
2018-08-12T01:19:20.210Z,15.8333333333
2018-08-12T01:19:32.720Z,15.8333333333
2018-08-12T01:19:45.256Z,15.8333333333
2018-08-12T01:19:57.781Z,15.8888888889
2018-08-12T01:20:10.328Z,15.8333333333
2018-08-12T01:20:22.880Z,15.8333333333
2018-08-12T01:20:35.398Z,15.8333333333
2018-08-12T01:20:47.922Z,15.8333333333
2018-08-12T01:21:00.501Z,15.8333333333
2018-08-12T01:21:13.041Z,15.8333333333
2018-08-12T01:21:25.576Z,15.8333333333
2018-08-12T01:21:38.106Z,15.8333333333
2018-08-12T01:21:50.628Z,15.8333333333
2018-08-12T01:22:03.277Z,15.8333333333
2018-08-12T01:22:15.797Z,15.8333333333
2018-08-12T01:22:28.332Z,15.8333333333
2018-08-12T01:22:40.854Z,15.8333333333
2018-08-12T01:22:53.381Z,15.7777777778
2018-08-12T01:23:05.910Z,15.7777777778
2018-08-12T01:23:18.488Z,15.7777777778
2018-08-12T01:23:31.046Z,15.7777777778
2018-08-12T01:23:43.782Z,15.7777777778
2018-08-12T01:23:56.335Z,15.7777777778
2018-08-12T01:24:08.889Z,15.7777777778
2018-08-12T01:24:21.480Z,15.7777777778
2018-08-12T01:24:34.010Z,15.7777777778
2018-08-12T01:24:46.528Z,15.7777777778
2018-08-12T01:24:59.069Z,15.7777777778
2018-08-12T01:25:11.591Z,15.7777777778
2018-08-12T01:25:24.143Z,15.8333333333
2018-08-12T01:25:36.643Z,15.7777777778
2018-08-12T01:25:49.476Z,15.7777777778
2018-08-12T01:26:02.000Z,15.8333333333
2018-08-12T01:26:14.510Z,15.7777777778
2018-08-12T01:26:27.003Z,15.7777777778
2018-08-12T01:26:39.522Z,15.7777777778
2018-08-12T01:26:52.026Z,15.7777777778
2018-08-12T01:27:04.543Z,15.7777777778
2018-08-12T01:27:17.074Z,15.7777777778
2018-08-12T01:27:29.582Z,15.7777777778
2018-08-12T01:27:42.113Z,15.7777777778
2018-08-12T01:27:54.635Z,15.7777777778
2018-08-12T01:28:07.152Z,15.7777777778
2018-08-12T01:28:19.704Z,15.7777777778
2018-08-12T01:28:32.230Z,15.7777777778
2018-08-12T01:28:44.764Z,15.7777777778
2018-08-12T01:28:57.289Z,15.7777777778
2018-08-12T01:29:09.822Z,15.7777777778
2018-08-12T01:29:22.328Z,15.7777777778
2018-08-12T01:29:34.865Z,15.7777777778
2018-08-12T01:29:47.389Z,15.8333333333
2018-08-12T01:29:59.913Z,15.7777777778
2018-08-12T01:30:12.491Z,15.7777777778
2018-08-12T01:30:25.018Z,15.7777777778
2018-08-12T01:30:37.590Z,15.7777777778
2018-08-12T01:30:50.096Z,15.8333333333
2018-08-12T01:31:02.856Z,15.7777777778
2018-08-12T01:31:15.379Z,15.7777777778
2018-08-12T01:31:27.896Z,15.7777777778
2018-08-12T01:31:40.409Z,15.7777777778
2018-08-12T01:31:52.915Z,15.7777777778
2018-08-12T01:32:05.444Z,15.7777777778
2018-08-12T01:32:17.968Z,15.7777777778
2018-08-12T01:32:30.589Z,15.7777777778
2018-08-12T01:32:43.169Z,15.7777777778
2018-08-12T01:32:55.686Z,15.7777777778
2018-08-12T01:33:08.219Z,15.7777777778
2018-08-12T01:33:20.751Z,15.7777777778
2018-08-12T01:33:33.262Z,15.7777777778
2018-08-12T01:33:45.771Z,15.7777777778
2018-08-12T01:33:58.281Z,15.7777777778
2018-08-12T01:34:10.800Z,15.7777777778
2018-08-12T01:34:23.337Z,15.7777777778
2018-08-12T01:34:35.871Z,15.7777777778
2018-08-12T01:34:48.417Z,15.7777777778
2018-08-12T01:35:00.927Z,15.7777777778
2018-08-12T01:35:13.520Z,15.7777777778
2018-08-12T01:35:26.060Z,15.7777777778
2018-08-12T01:35:38.564Z,15.7777777778
2018-08-12T01:35:51.439Z,15.7777777778
2018-08-12T01:36:05.340Z,15.7222222222
2018-08-12T01:36:17.948Z,15.7222222222
2018-08-12T01:36:30.486Z,15.7222222222
2018-08-12T01:36:43.010Z,15.7222222222
2018-08-12T01:36:55.531Z,15.7222222222
2018-08-12T01:37:08.059Z,15.7222222222
2018-08-12T01:37:20.676Z,15.7777777778
2018-08-12T01:37:33.185Z,15.7222222222
2018-08-12T01:37:45.747Z,15.7222222222
2018-08-12T01:37:58.290Z,15.7222222222
2018-08-12T01:38:10.803Z,15.7222222222
2018-08-12T01:38:23.317Z,15.7222222222
2018-08-12T01:38:35.831Z,15.6666666667
2018-08-12T01:38:48.355Z,15.7222222222
2018-08-12T01:39:00.883Z,15.7222222222
2018-08-12T01:39:13.419Z,15.7222222222
2018-08-12T01:39:26.094Z,15.7222222222
2018-08-12T01:39:38.626Z,15.6666666667
2018-08-12T01:39:51.144Z,15.6666666667
2018-08-12T01:40:03.661Z,15.6666666667
2018-08-12T01:40:16.199Z,15.6666666667
2018-08-12T01:40:28.730Z,15.6666666667
2018-08-12T01:40:41.252Z,15.6666666667
2018-08-12T01:40:53.768Z,15.7222222222
2018-08-12T01:41:06.301Z,15.6666666667
2018-08-12T01:41:18.798Z,15.6666666667
2018-08-12T01:41:31.374Z,15.6666666667
2018-08-12T01:41:43.901Z,15.6666666667
2018-08-12T01:41:56.400Z,15.6666666667
2018-08-12T01:42:08.916Z,15.6666666667
2018-08-12T01:42:21.433Z,15.6666666667
2018-08-12T01:42:33.951Z,15.6666666667
2018-08-12T01:42:46.491Z,15.6666666667
2018-08-12T01:42:59.007Z,15.6111111111
2018-08-12T01:43:11.531Z,15.6111111111
2018-08-12T01:43:24.049Z,15.6111111111
2018-08-12T01:43:36.618Z,15.6111111111
2018-08-12T01:43:49.128Z,15.6111111111
2018-08-12T01:44:01.652Z,15.6111111111
2018-08-12T01:44:14.169Z,15.6111111111
2018-08-12T01:44:26.709Z,15.6111111111
2018-08-12T01:44:39.226Z,15.6111111111
2018-08-12T01:44:51.742Z,15.5555555556
2018-08-12T01:45:04.262Z,15.5555555556
2018-08-12T01:45:16.784Z,15.5555555556
2018-08-12T01:45:29.375Z,15.5555555556
2018-08-12T01:45:41.880Z,15.5555555556
2018-08-12T01:45:54.436Z,15.5555555556
2018-08-12T01:46:06.943Z,15.5555555556
2018-08-12T01:46:19.472Z,15.5555555556
2018-08-12T01:46:31.977Z,15.5555555556
2018-08-12T01:46:44.488Z,15.5555555556
2018-08-12T01:46:57.027Z,15.5555555556
2018-08-12T01:47:09.541Z,15.5555555556
2018-08-12T01:47:22.059Z,15.5
2018-08-12T01:47:34.592Z,15.5555555556
2018-08-12T01:47:47.161Z,15.5555555556
2018-08-12T01:47:59.684Z,15.5
2018-08-12T01:48:12.212Z,15.5
2018-08-12T01:48:24.726Z,15.5
2018-08-12T01:48:37.254Z,15.5555555556
2018-08-12T01:48:49.775Z,15.5
2018-08-12T01:49:02.457Z,15.5555555556
2018-08-12T01:49:14.994Z,15.5
2018-08-12T01:49:27.677Z,15.5
2018-08-12T01:49:40.180Z,15.5
2018-08-12T01:49:52.705Z,15.5555555556
2018-08-12T01:50:05.227Z,15.5
2018-08-12T01:50:17.775Z,15.5
2018-08-12T01:50:30.305Z,15.5
2018-08-12T01:50:42.850Z,15.5
2018-08-12T01:50:55.386Z,15.5
2018-08-12T01:51:07.906Z,15.5
2018-08-12T01:51:20.431Z,15.5
2018-08-12T01:51:32.958Z,15.5
2018-08-12T01:51:45.558Z,15.4444444444
2018-08-12T01:51:58.079Z,15.5
2018-08-12T01:52:10.617Z,15.5
2018-08-12T01:52:23.133Z,15.4444444444
2018-08-12T01:52:35.655Z,15.4444444444
2018-08-12T01:52:48.166Z,15.4444444444
2018-08-12T01:53:00.715Z,15.4444444444
2018-08-12T01:53:13.300Z,15.4444444444
2018-08-12T01:53:25.853Z,15.4444444444
2018-08-12T01:53:38.371Z,15.4444444444
2018-08-12T01:53:50.951Z,15.4444444444
2018-08-12T01:54:03.463Z,15.4444444444
2018-08-12T01:54:15.988Z,15.4444444444
2018-08-12T01:54:28.519Z,15.4444444444
2018-08-12T01:54:41.031Z,15.4444444444
2018-08-12T01:54:53.535Z,15.3888888889
2018-08-12T01:55:06.183Z,15.4444444444
2018-08-12T01:55:18.723Z,15.4444444444
2018-08-12T01:55:31.247Z,15.3888888889
2018-08-12T01:55:43.764Z,15.4444444444
2018-08-12T01:55:56.289Z,15.4444444444
2018-08-12T01:56:08.815Z,15.3888888889
2018-08-12T01:56:21.336Z,15.3888888889
2018-08-12T01:56:33.843Z,15.3888888889
2018-08-12T01:56:46.370Z,15.3888888889
2018-08-12T01:56:58.883Z,15.3888888889
2018-08-12T01:57:11.378Z,15.3888888889
2018-08-12T01:57:23.928Z,15.3888888889
2018-08-12T01:57:36.449Z,15.3888888889
2018-08-12T01:57:48.982Z,15.3888888889
2018-08-12T01:58:01.495Z,15.3888888889
2018-08-12T01:58:14.034Z,15.3888888889
2018-08-12T01:58:26.607Z,15.3888888889
2018-08-12T01:58:39.136Z,15.3888888889
2018-08-12T01:58:51.668Z,15.3333333333
2018-08-12T01:59:04.211Z,15.3888888889
2018-08-12T01:59:16.748Z,15.3888888889
2018-08-12T01:59:29.263Z,15.3888888889
2018-08-12T01:59:41.782Z,15.3888888889
2018-08-12T01:59:54.311Z,15.3888888889
2018-08-12T02:00:06.916Z,15.3333333333
2018-08-12T02:00:19.493Z,15.3888888889
2018-08-12T02:00:32.025Z,15.3333333333
2018-08-12T02:00:44.570Z,15.3888888889
2018-08-12T02:00:57.154Z,15.3888888889
2018-08-12T02:01:09.728Z,15.3888888889
2018-08-12T02:01:22.281Z,15.3888888889
2018-08-12T02:01:34.812Z,15.3888888889
2018-08-12T02:01:47.383Z,15.3888888889
2018-08-12T02:01:59.896Z,15.3333333333
2018-08-12T02:02:12.402Z,15.3333333333
2018-08-12T02:02:24.946Z,15.3888888889
2018-08-12T02:02:37.591Z,15.3333333333
2018-08-12T02:02:50.122Z,15.3333333333
2018-08-12T02:03:02.647Z,15.3888888889
2018-08-12T02:03:15.173Z,15.3333333333
2018-08-12T02:03:27.745Z,15.3333333333
2018-08-12T02:03:40.251Z,15.3333333333
2018-08-12T02:03:52.786Z,15.3888888889
2018-08-12T02:04:05.396Z,15.3333333333
2018-08-12T02:04:18.026Z,15.3888888889
2018-08-12T02:04:30.546Z,15.3333333333
2018-08-12T02:04:43.062Z,15.3333333333
2018-08-12T02:04:55.585Z,15.3888888889
2018-08-12T02:05:08.111Z,15.3333333333
2018-08-12T02:05:20.656Z,15.3888888889
2018-08-12T02:05:33.167Z,15.3333333333
2018-08-12T02:05:45.698Z,15.3888888889
2018-08-12T02:05:58.267Z,15.3333333333
2018-08-12T02:06:10.844Z,15.3333333333
2018-08-12T02:06:23.354Z,15.3333333333
2018-08-12T02:06:35.885Z,15.3888888889
2018-08-12T02:06:48.464Z,15.3333333333
2018-08-12T02:07:00.979Z,15.3888888889
2018-08-12T02:07:13.504Z,15.3333333333
2018-08-12T02:07:26.025Z,15.3333333333
2018-08-12T02:07:38.566Z,15.3888888889
2018-08-12T02:07:51.111Z,15.3333333333
2018-08-12T02:08:03.633Z,15.3333333333
2018-08-12T02:08:16.147Z,15.3333333333
2018-08-12T02:08:28.674Z,15.3888888889
2018-08-12T02:08:41.227Z,15.3888888889
2018-08-12T02:08:53.772Z,15.3333333333
2018-08-12T02:09:06.305Z,15.3333333333
2018-08-12T02:09:18.865Z,15.3888888889
2018-08-12T02:09:31.438Z,15.3333333333
2018-08-12T02:09:43.960Z,15.3888888889
2018-08-12T02:09:56.489Z,15.3333333333
2018-08-12T02:10:09.022Z,15.3888888889
2018-08-12T02:10:21.553Z,15.3888888889
2018-08-12T02:10:34.066Z,15.3333333333
2018-08-12T02:10:46.714Z,15.3333333333
2018-08-12T02:10:59.235Z,15.3333333333